createdAt,value
2023-01-19T00:02:14.504Z,2.80
2023-01-19T00:04:41.261Z,2.80
2023-01-19T00:07:09.046Z,2.80
2023-01-19T00:09:36.391Z,2.80
2023-01-19T00:12:03.073Z,2.80
2023-01-19T00:14:35.258Z,2.80
2023-01-19T00:17:01.968Z,2.80
2023-01-19T00:19:29.340Z,2.80
2023-01-19T00:21:56.065Z,2.80
2023-01-19T00:24:23.076Z,2.70
2023-01-19T00:26:49.748Z,2.70
2023-01-19T00:29:16.466Z,2.70
2023-01-19T00:31:43.250Z,2.70
2023-01-19T00:34:09.952Z,2.70
2023-01-19T00:36:36.667Z,2.70
2023-01-19T00:39:03.449Z,2.70
2023-01-19T00:41:30.216Z,2.70
2023-01-19T00:43:56.910Z,2.60
2023-01-19T00:46:23.593Z,2.70
2023-01-19T00:48:50.333Z,2.60
2023-01-19T00:51:17.025Z,2.60
2023-01-19T00:53:43.798Z,2.60
2023-01-19T00:56:10.486Z,2.60
2023-01-19T00:58:37.189Z,2.60
2023-01-19T01:01:04.231Z,2.60
2023-01-19T01:03:31.013Z,2.60
2023-01-19T01:05:57.731Z,2.60
2023-01-19T01:08:24.654Z,2.60
2023-01-19T01:10:51.658Z,2.60
2023-01-19T01:13:21.432Z,2.50
2023-01-19T01:15:52.747Z,2.50
2023-01-19T01:18:19.548Z,2.50
2023-01-19T01:20:46.258Z,2.50
2023-01-19T01:23:13.214Z,2.50
2023-01-19T01:25:40.001Z,2.50
2023-01-19T01:28:07.171Z,2.50
2023-01-19T01:30:34.118Z,2.50
2023-01-19T01:33:01.376Z,2.50
2023-01-19T01:35:28.367Z,2.50
2023-01-19T01:37:58.398Z,2.50
2023-01-19T01:40:25.181Z,2.50
2023-01-19T01:42:51.958Z,2.50
2023-01-19T01:45:35.458Z,2.50
2023-01-19T01:48:10.086Z,2.50
2023-01-19T01:50:43.787Z,2.50
2023-01-19T01:53:13.888Z,2.50
2023-01-19T01:55:45.998Z,2.50
2023-01-19T01:58:12.690Z,2.50
2023-01-19T02:00:39.475Z,2.50
2023-01-19T02:03:06.238Z,2.50
2023-01-19T02:05:34.134Z,2.50
2023-01-19T02:08:24.808Z,2.40
2023-01-19T02:10:51.577Z,2.40
2023-01-19T02:13:19.050Z,2.40
2023-01-19T02:15:46.750Z,2.40
2023-01-19T02:18:13.429Z,2.40
2023-01-19T02:20:40.594Z,2.40
2023-01-19T02:23:11.513Z,2.40
2023-01-19T02:25:38.240Z,2.30
2023-01-19T02:28:05.208Z,2.30
2023-01-19T02:30:32.000Z,2.30
2023-01-19T02:32:58.952Z,2.30
2023-01-19T02:35:25.906Z,2.30
2023-01-19T02:37:52.574Z,2.20
2023-01-19T02:40:19.327Z,2.20
2023-01-19T02:42:49.853Z,2.20
2023-01-19T02:45:20.051Z,2.20
2023-01-19T02:47:48.498Z,2.20
2023-01-19T02:50:43.758Z,2.20
2023-01-19T02:53:12.898Z,2.10
2023-01-19T02:55:39.545Z,2.10
2023-01-19T02:58:16.018Z,2.10
2023-01-19T03:00:42.745Z,2.10
2023-01-19T03:03:12.631Z,2.10
2023-01-19T03:06:03.579Z,2.10
2023-01-19T03:08:31.663Z,2.10
2023-01-19T03:11:12.075Z,2.10
2023-01-19T03:13:49.880Z,2.10
2023-01-19T03:16:34.444Z,2.10
2023-01-19T03:19:14.990Z,2.10
2023-01-19T03:21:42.948Z,2.10
2023-01-19T03:24:09.646Z,2.10
2023-01-19T03:26:42.991Z,2.10
2023-01-19T03:29:10.238Z,2.10
2023-01-19T03:31:36.935Z,2.10
2023-01-19T03:34:05.339Z,2.10
2023-01-19T03:36:34.873Z,2.10
2023-01-19T03:39:01.782Z,2.10
2023-01-19T03:41:28.502Z,2.10
2023-01-19T03:43:55.475Z,2.10
2023-01-19T03:46:22.796Z,2.10
2023-01-19T03:48:49.550Z,2.00
2023-01-19T03:51:16.226Z,2.00
2023-01-19T03:53:42.927Z,2.00
2023-01-19T03:56:27.753Z,1.90
2023-01-19T03:58:56.223Z,1.80
2023-01-19T04:01:23.738Z,1.70
2023-01-19T04:03:51.032Z,1.70
2023-01-19T04:06:17.825Z,1.70
2023-01-19T04:08:44.624Z,1.60
2023-01-19T04:11:11.344Z,1.60
2023-01-19T04:13:38.095Z,1.60
2023-01-19T04:16:05.415Z,1.50
2023-01-19T04:18:33.900Z,1.50
2023-01-19T04:21:02.663Z,1.40
2023-01-19T04:23:29.404Z,1.40
2023-01-19T04:26:03.469Z,1.40
2023-01-19T04:28:30.289Z,1.40
2023-01-19T04:30:57.028Z,1.40
2023-01-19T04:33:23.791Z,1.40
2023-01-19T04:35:53.536Z,1.50
2023-01-19T04:38:21.143Z,1.50
2023-01-19T04:40:48.884Z,1.40
2023-01-19T04:43:15.625Z,1.40
2023-01-19T04:45:42.452Z,1.40
2023-01-19T04:48:09.142Z,1.40
2023-01-19T04:50:35.830Z,1.40
2023-01-19T04:53:02.797Z,1.40
2023-01-19T04:55:29.722Z,1.40
2023-01-19T04:57:56.541Z,1.40
2023-01-19T05:00:23.335Z,1.40
2023-01-19T05:02:50.066Z,1.40
2023-01-19T05:05:16.853Z,1.40
2023-01-19T05:07:43.611Z,1.30
2023-01-19T05:10:10.943Z,1.30
2023-01-19T05:12:37.649Z,1.30
2023-01-19T05:15:04.715Z,1.30
2023-01-19T05:17:31.424Z,1.30
2023-01-19T05:19:58.148Z,1.40
2023-01-19T05:22:24.902Z,1.40
2023-01-19T05:24:51.581Z,1.50
2023-01-19T05:27:18.297Z,1.50
2023-01-19T05:29:45.127Z,1.60
2023-01-19T05:32:11.819Z,1.60
2023-01-19T05:34:38.507Z,1.70
2023-01-19T05:37:05.253Z,1.70
2023-01-19T05:39:32.005Z,1.70
2023-01-19T05:41:58.707Z,1.80
2023-01-19T05:44:25.439Z,1.70
2023-01-19T05:46:52.250Z,1.70
2023-01-19T05:49:18.986Z,1.80
2023-01-19T05:51:45.750Z,1.80
2023-01-19T05:54:14.137Z,1.80
2023-01-19T05:56:40.901Z,1.80
2023-01-19T05:59:07.619Z,1.80
2023-01-19T06:01:34.385Z,1.80
2023-01-19T06:04:01.267Z,1.80
2023-01-19T06:06:28.008Z,1.80
2023-01-19T06:08:54.897Z,1.80
2023-01-19T06:11:21.607Z,1.70
2023-01-19T06:13:48.390Z,1.80
2023-01-19T06:16:15.157Z,1.70
2023-01-19T06:18:41.828Z,1.70
2023-01-19T06:21:12.142Z,1.70
2023-01-19T06:23:38.852Z,1.70
2023-01-19T06:26:05.774Z,1.60
2023-01-19T06:28:32.470Z,1.60
2023-01-19T06:30:59.238Z,1.60
2023-01-19T06:33:26.457Z,1.60
2023-01-19T06:35:53.240Z,1.50
2023-01-19T06:38:19.979Z,1.50
2023-01-19T06:40:51.618Z,1.50
2023-01-19T06:43:18.346Z,1.50
2023-01-19T06:45:46.134Z,1.50
2023-01-19T06:48:13.011Z,1.50
2023-01-19T06:50:40.010Z,1.50
2023-01-19T06:53:06.690Z,1.50
2023-01-19T06:55:33.419Z,1.50
2023-01-19T06:58:00.853Z,1.50
2023-01-19T07:00:27.627Z,1.50
2023-01-19T07:02:54.454Z,1.50
2023-01-19T07:05:21.163Z,1.50
2023-01-19T07:07:54.705Z,1.50
2023-01-19T07:10:21.854Z,1.50
2023-01-19T07:12:48.903Z,1.50
2023-01-19T07:15:16.737Z,1.60
2023-01-19T07:17:43.675Z,1.50
2023-01-19T07:20:11.407Z,1.50
2023-01-19T07:22:38.083Z,1.50
2023-01-19T07:25:05.557Z,1.50
2023-01-19T07:27:32.238Z,1.50
2023-01-19T07:29:59.017Z,1.50
2023-01-19T07:32:25.705Z,1.50
2023-01-19T07:34:52.413Z,1.50
2023-01-19T07:37:19.115Z,1.50
2023-01-19T07:39:45.818Z,1.50
2023-01-19T07:42:12.564Z,1.50
2023-01-19T07:44:39.272Z,1.50
2023-01-19T07:47:05.999Z,1.50
2023-01-19T07:49:32.821Z,1.50
2023-01-19T07:51:59.496Z,1.40
2023-01-19T07:54:26.474Z,1.40
2023-01-19T07:56:55.933Z,1.40
2023-01-19T07:59:22.748Z,1.40
2023-01-19T08:01:49.534Z,1.30
2023-01-19T08:04:16.297Z,1.40
2023-01-19T08:06:43.536Z,1.30
2023-01-19T08:09:10.342Z,1.40
2023-01-19T08:11:37.018Z,1.40
2023-01-19T08:14:05.736Z,1.40
2023-01-19T08:16:34.462Z,1.40
2023-01-19T08:19:01.170Z,1.50
2023-01-19T08:21:28.037Z,1.50
2023-01-19T08:23:55.442Z,1.50
2023-01-19T08:26:28.958Z,1.60
2023-01-19T08:28:57.151Z,1.60
2023-01-19T08:31:25.002Z,1.60
2023-01-19T08:33:52.088Z,1.70
2023-01-19T08:36:19.353Z,1.70
2023-01-19T08:38:46.441Z,1.80
2023-01-19T08:41:13.284Z,1.80
2023-01-19T08:43:40.067Z,1.80
2023-01-19T08:46:06.871Z,1.80
2023-01-19T08:48:33.583Z,1.80
2023-01-19T08:51:00.360Z,1.90
2023-01-19T08:53:27.146Z,1.90
2023-01-19T08:55:57.041Z,2.00
2023-01-19T08:58:24.009Z,2.00
2023-01-19T09:00:50.806Z,2.00
2023-01-19T09:03:17.565Z,2.00
2023-01-19T09:05:44.391Z,2.00
2023-01-19T09:08:12.297Z,2.00
2023-01-19T09:10:39.575Z,2.00
2023-01-19T09:13:07.429Z,2.00
2023-01-19T09:15:34.287Z,2.00
2023-01-19T09:18:01.726Z,2.00
2023-01-19T09:20:28.904Z,2.00
2023-01-19T09:22:56.474Z,2.00
2023-01-19T09:25:23.163Z,2.00
2023-01-19T09:27:49.926Z,2.00
2023-01-19T09:30:17.005Z,2.00
2023-01-19T09:32:43.734Z,2.10
2023-01-19T09:35:10.534Z,2.10
2023-01-19T09:37:37.325Z,2.20
2023-01-19T09:40:06.068Z,2.20
2023-01-19T09:42:41.923Z,2.30
2023-01-19T09:45:15.341Z,2.40
2023-01-19T09:47:42.066Z,2.40
2023-01-19T09:50:29.103Z,2.60
2023-01-19T09:53:10.407Z,2.80
2023-01-19T09:55:37.094Z,3.00
2023-01-19T09:58:04.767Z,3.20
2023-01-19T10:00:31.469Z,3.40
2023-01-19T10:03:02.857Z,3.60
2023-01-19T10:05:51.896Z,3.70
2023-01-19T10:08:38.683Z,3.80
2023-01-19T10:11:05.389Z,3.80
2023-01-19T10:13:32.140Z,3.90
2023-01-19T10:16:14.342Z,3.90
2023-01-19T10:18:47.376Z,3.90
2023-01-19T10:21:23.680Z,4.00
2023-01-19T10:24:07.258Z,4.00
2023-01-19T10:26:34.570Z,4.10
2023-01-19T10:29:08.667Z,4.10
2023-01-19T10:31:36.368Z,4.20
2023-01-19T10:34:03.439Z,4.30
2023-01-19T10:36:37.642Z,4.30
2023-01-19T10:39:07.762Z,4.40
2023-01-19T10:41:54.772Z,4.40
2023-01-19T10:44:29.007Z,4.50
2023-01-19T10:46:56.779Z,4.60
2023-01-19T10:49:30.540Z,4.70
2023-01-19T10:52:00.078Z,4.80
2023-01-19T10:54:27.493Z,4.90
2023-01-19T10:56:58.678Z,4.90
2023-01-19T10:59:46.875Z,5.00
2023-01-19T11:02:19.861Z,5.10
2023-01-19T11:04:51.126Z,5.10
2023-01-19T11:07:20.998Z,5.20
2023-01-19T11:09:48.215Z,5.30
2023-01-19T11:12:22.169Z,5.40
2023-01-19T11:14:49.817Z,5.50
2023-01-19T11:17:21.799Z,5.50
2023-01-19T11:20:02.265Z,5.60
2023-01-19T11:22:32.117Z,5.60
2023-01-19T11:25:03.593Z,5.70
2023-01-19T11:27:31.154Z,5.80
2023-01-19T11:30:03.167Z,5.90
2023-01-19T11:32:29.995Z,6.00
2023-01-19T11:34:56.745Z,6.10
2023-01-19T11:37:28.756Z,7.70
2023-01-19T11:39:57.439Z,10.00
2023-01-19T11:42:27.174Z,12.10
2023-01-19T11:45:13.300Z,13.80
2023-01-19T11:47:40.355Z,15.30
2023-01-19T11:50:23.155Z,16.20
2023-01-19T11:53:06.138Z,17.00
2023-01-19T11:55:33.105Z,17.70
2023-01-19T11:58:00.050Z,17.80
2023-01-19T12:00:39.902Z,17.60
2023-01-19T12:03:14.342Z,17.20
2023-01-19T12:05:42.286Z,16.50
2023-01-19T12:08:13.526Z,15.70
2023-01-19T12:10:41.316Z,14.80
2023-01-19T12:13:37.146Z,13.80
2023-01-19T12:16:33.532Z,12.90
2023-01-19T12:19:21.306Z,11.80
2023-01-19T12:21:48.026Z,11.40
2023-01-19T12:24:53.040Z,11.30
2023-01-19T12:27:42.731Z,11.40
2023-01-19T12:30:29.929Z,11.40
2023-01-19T12:33:21.662Z,11.30
2023-01-19T12:35:57.446Z,11.00
2023-01-19T12:38:30.039Z,10.90
2023-01-19T12:41:21.402Z,10.90
2023-01-19T12:43:48.959Z,10.60
2023-01-19T12:46:33.913Z,10.30
2023-01-19T12:49:21.359Z,9.90
2023-01-19T12:51:48.585Z,9.50
2023-01-19T12:54:29.005Z,9.10
2023-01-19T12:57:01.004Z,8.70
2023-01-19T12:59:28.027Z,8.40
2023-01-19T13:02:32.422Z,8.20
2023-01-19T13:05:16.883Z,8.00
2023-01-19T13:08:01.975Z,7.80
2023-01-19T13:10:53.712Z,7.70
2023-01-19T13:13:24.719Z,7.70
2023-01-19T13:15:54.189Z,7.50
2023-01-19T13:18:26.339Z,7.50
2023-01-19T13:21:04.501Z,7.40
2023-01-19T13:23:49.345Z,7.50
2023-01-19T13:26:17.486Z,7.60
2023-01-19T13:28:45.497Z,7.70
2023-01-19T13:31:12.760Z,7.80
2023-01-19T13:33:53.591Z,7.80
2023-01-19T13:36:28.953Z,7.80
2023-01-19T13:38:56.488Z,7.60
2023-01-19T13:41:28.963Z,7.50
2023-01-19T13:44:20.257Z,7.30
2023-01-19T13:46:47.403Z,7.20
2023-01-19T13:49:16.038Z,7.10
2023-01-19T13:51:42.776Z,7.00
2023-01-19T13:54:17.825Z,6.90
2023-01-19T13:56:47.988Z,6.90
2023-01-19T13:59:14.747Z,6.80
2023-01-19T14:01:43.623Z,6.90
2023-01-19T14:04:30.405Z,6.90
2023-01-19T14:06:59.464Z,7.00
2023-01-19T14:09:26.262Z,7.00
2023-01-19T14:12:06.511Z,7.00
2023-01-19T14:14:33.361Z,6.90
2023-01-19T14:17:00.259Z,6.80
2023-01-19T14:19:27.073Z,6.70
2023-01-19T14:22:01.680Z,6.60
2023-01-19T14:24:28.745Z,6.50
2023-01-19T14:27:07.742Z,6.50
2023-01-19T14:29:35.225Z,6.40
2023-01-19T14:32:15.253Z,6.40
2023-01-19T14:34:50.771Z,6.40
2023-01-19T14:37:17.450Z,6.40
2023-01-19T14:39:45.768Z,6.30
2023-01-19T14:42:17.513Z,6.30
2023-01-19T14:44:46.979Z,6.30
2023-01-19T14:47:25.428Z,6.30
2023-01-19T14:49:52.092Z,6.30
2023-01-19T14:52:30.032Z,6.30
2023-01-19T14:54:56.741Z,6.20
2023-01-19T14:57:23.479Z,6.20
2023-01-19T14:59:50.249Z,6.20
2023-01-19T15:02:17.725Z,6.20
2023-01-19T15:04:44.796Z,6.10
2023-01-19T15:07:18.526Z,6.20
2023-01-19T15:09:46.258Z,6.20
2023-01-19T15:12:16.015Z,6.20
2023-01-19T15:14:44.129Z,6.10
2023-01-19T15:17:17.538Z,6.10
2023-01-19T15:19:44.226Z,6.10
2023-01-19T15:22:12.134Z,6.00
2023-01-19T15:24:38.820Z,5.90
2023-01-19T15:27:05.578Z,5.90
2023-01-19T15:29:32.444Z,5.90
2023-01-19T15:31:59.175Z,5.80
2023-01-19T15:34:25.896Z,5.80
2023-01-19T15:36:52.595Z,5.70
2023-01-19T15:39:19.283Z,5.70
2023-01-19T15:41:46.013Z,5.60
2023-01-19T15:44:12.687Z,5.60
2023-01-19T15:46:39.559Z,5.60
2023-01-19T15:49:06.390Z,5.50
2023-01-19T15:51:33.097Z,5.50
2023-01-19T15:53:59.883Z,5.50
2023-01-19T15:56:28.158Z,5.50
2023-01-19T15:58:55.085Z,5.40
2023-01-19T16:01:26.255Z,5.40
2023-01-19T16:03:53.053Z,5.40
2023-01-19T16:06:19.792Z,5.30
2023-01-19T16:08:46.550Z,5.30
2023-01-19T16:11:14.524Z,5.30
2023-01-19T16:13:43.965Z,5.20
2023-01-19T16:16:28.949Z,5.20
2023-01-19T16:18:56.565Z,5.20
2023-01-19T16:21:23.365Z,5.20
2023-01-19T16:23:50.125Z,5.10
2023-01-19T16:26:27.128Z,5.00
2023-01-19T16:28:57.050Z,5.00
2023-01-19T16:31:23.895Z,5.00
2023-01-19T16:33:50.612Z,5.00
2023-01-19T16:36:24.783Z,4.90
2023-01-19T16:38:51.576Z,4.90
2023-01-19T16:41:18.275Z,4.90
2023-01-19T16:43:49.483Z,4.90
2023-01-19T16:46:27.365Z,4.90
2023-01-19T16:48:54.178Z,4.80
2023-01-19T16:51:20.847Z,4.80
2023-01-19T16:53:49.100Z,4.70
2023-01-19T16:56:15.851Z,4.70
2023-01-19T16:58:42.754Z,4.60
2023-01-19T17:01:11.244Z,4.60
2023-01-19T17:03:38.127Z,4.50
2023-01-19T17:06:05.917Z,4.50
2023-01-19T17:08:33.202Z,4.40
2023-01-19T17:11:00.099Z,4.40
2023-01-19T17:13:27.947Z,4.30
2023-01-19T17:15:59.664Z,4.30
2023-01-19T17:18:26.828Z,4.20
2023-01-19T17:20:53.516Z,4.20
2023-01-19T17:23:22.260Z,4.10
2023-01-19T17:25:53.154Z,4.10
2023-01-19T17:28:19.922Z,4.00
2023-01-19T17:30:46.729Z,4.00
2023-01-19T17:33:13.535Z,3.90
2023-01-19T17:35:40.259Z,3.90
2023-01-19T17:38:07.067Z,3.90
2023-01-19T17:40:33.791Z,3.90
2023-01-19T17:43:00.551Z,3.90
2023-01-19T17:45:27.254Z,3.80
2023-01-19T17:47:54.019Z,3.90
2023-01-19T17:50:20.687Z,3.90
2023-01-19T17:52:47.418Z,3.80
2023-01-19T17:55:14.164Z,3.80
2023-01-19T17:57:40.842Z,3.80
2023-01-19T18:00:08.201Z,3.80
2023-01-19T18:02:34.994Z,3.80
2023-01-19T18:05:01.703Z,3.80
2023-01-19T18:07:28.982Z,3.70
2023-01-19T18:09:55.668Z,3.80
2023-01-19T18:12:23.326Z,3.70
2023-01-19T18:14:50.047Z,3.70
2023-01-19T18:17:17.706Z,3.70
2023-01-19T18:19:44.399Z,3.70
2023-01-19T18:22:11.136Z,3.60
2023-01-19T18:24:37.829Z,3.60
2023-01-19T18:27:04.638Z,3.60
2023-01-19T18:29:31.347Z,3.60
2023-01-19T18:31:58.133Z,3.50
2023-01-19T18:34:24.886Z,3.50
2023-01-19T18:36:51.595Z,3.50
2023-01-19T18:39:18.392Z,3.50
2023-01-19T18:41:45.087Z,3.40
2023-01-19T18:44:12.159Z,3.40
2023-01-19T18:46:39.984Z,3.40
2023-01-19T18:49:06.853Z,3.40
2023-01-19T18:51:33.535Z,3.40
2023-01-19T18:54:00.215Z,3.40
2023-01-19T18:56:26.884Z,3.40
2023-01-19T18:58:53.615Z,3.50
2023-01-19T19:01:25.669Z,3.50
2023-01-19T19:03:53.020Z,3.40
2023-01-19T19:06:19.991Z,3.40
2023-01-19T19:08:48.359Z,3.40
2023-01-19T19:11:15.088Z,3.40
2023-01-19T19:13:41.882Z,3.40
2023-01-19T19:16:09.709Z,3.40
2023-01-19T19:18:36.721Z,3.40
2023-01-19T19:21:07.841Z,3.40
2023-01-19T19:23:34.591Z,3.40
2023-01-19T19:26:05.384Z,3.30
2023-01-19T19:28:32.581Z,3.30
2023-01-19T19:31:10.343Z,3.30
2023-01-19T19:33:37.326Z,3.20
2023-01-19T19:36:04.635Z,3.20
2023-01-19T19:38:31.351Z,3.20
2023-01-19T19:40:58.072Z,3.20
2023-01-19T19:43:25.071Z,3.20
2023-01-19T19:45:59.364Z,3.20
2023-01-19T19:48:26.481Z,3.20
2023-01-19T19:50:53.270Z,3.10
2023-01-19T19:53:20.477Z,3.10
2023-01-19T19:56:00.439Z,3.10
2023-01-19T19:58:27.370Z,3.10
2023-01-19T20:00:54.377Z,3.00
2023-01-19T20:03:21.196Z,3.00
2023-01-19T20:05:48.236Z,3.00
2023-01-19T20:08:15.060Z,3.00
2023-01-19T20:10:41.786Z,3.00
2023-01-19T20:13:09.255Z,3.00
2023-01-19T20:15:37.174Z,3.00
2023-01-19T20:18:05.476Z,3.00
2023-01-19T20:20:33.259Z,3.00
2023-01-19T20:23:00.676Z,3.00
2023-01-19T20:25:27.890Z,3.00
2023-01-19T20:27:54.782Z,3.00
2023-01-19T20:30:22.155Z,3.00
2023-01-19T20:32:48.998Z,2.90
2023-01-19T20:35:15.848Z,2.90
2023-01-19T20:37:42.696Z,3.00
2023-01-19T20:40:09.857Z,2.90
2023-01-19T20:42:36.574Z,2.90
2023-01-19T20:45:03.474Z,2.90
2023-01-19T20:47:30.240Z,2.90
2023-01-19T20:49:56.935Z,2.90
2023-01-19T20:52:23.634Z,2.90
2023-01-19T20:54:50.433Z,2.90
2023-01-19T20:57:17.129Z,2.90
2023-01-19T20:59:43.890Z,2.90
2023-01-19T21:02:11.262Z,2.90
2023-01-19T21:04:38.258Z,2.80
2023-01-19T21:07:04.960Z,2.80
2023-01-19T21:09:31.683Z,2.80
2023-01-19T21:11:58.375Z,2.80
2023-01-19T21:14:25.040Z,2.80
2023-01-19T21:16:51.795Z,2.80
2023-01-19T21:19:18.480Z,2.70
2023-01-19T21:21:45.246Z,2.70
2023-01-19T21:24:12.001Z,2.70
2023-01-19T21:26:38.746Z,2.70
2023-01-19T21:29:05.446Z,2.70
2023-01-19T21:31:32.202Z,2.70
2023-01-19T21:33:59.249Z,2.70
2023-01-19T21:36:26.098Z,2.70
2023-01-19T21:38:52.875Z,2.70
2023-01-19T21:41:19.776Z,2.70
2023-01-19T21:43:46.603Z,2.70
2023-01-19T21:46:14.843Z,2.70
2023-01-19T21:48:41.953Z,2.70
2023-01-19T21:51:08.832Z,2.70
2023-01-19T21:53:35.567Z,2.70
2023-01-19T21:56:02.301Z,2.60
2023-01-19T21:58:29.000Z,2.70
2023-01-19T22:01:03.095Z,2.70
2023-01-19T22:03:30.038Z,2.60
2023-01-19T22:05:56.930Z,2.60
2023-01-19T22:08:23.797Z,2.60
2023-01-19T22:10:50.510Z,2.60
2023-01-19T22:13:18.064Z,2.60
2023-01-19T22:15:44.765Z,2.60
2023-01-19T22:18:11.457Z,2.50
2023-01-19T22:20:38.338Z,2.50
2023-01-19T22:23:05.057Z,2.50
2023-01-19T22:25:33.169Z,2.50
2023-01-19T22:28:01.750Z,2.50
2023-01-19T22:30:28.718Z,2.50
2023-01-19T22:32:55.452Z,2.50
2023-01-19T22:35:22.218Z,2.50
2023-01-19T22:37:48.891Z,2.50
2023-01-19T22:40:15.783Z,2.60
2023-01-19T22:42:46.823Z,2.60
2023-01-19T22:45:13.955Z,2.60
2023-01-19T22:47:41.154Z,2.60
2023-01-19T22:50:08.678Z,2.60
2023-01-19T22:52:35.370Z,2.60
2023-01-19T22:55:02.170Z,2.70
2023-01-19T22:57:31.400Z,2.70
2023-01-19T23:00:14.190Z,2.80
2023-01-19T23:02:40.886Z,2.80
2023-01-19T23:05:07.845Z,2.90
2023-01-19T23:07:34.534Z,2.90
2023-01-19T23:10:01.271Z,3.00
2023-01-19T23:12:27.938Z,3.00
2023-01-19T23:14:54.615Z,3.10
2023-01-19T23:17:21.351Z,3.10
2023-01-19T23:19:48.038Z,3.10
2023-01-19T23:22:14.742Z,3.20
2023-01-19T23:24:41.423Z,3.20
2023-01-19T23:27:08.153Z,3.20
2023-01-19T23:29:34.943Z,3.20
2023-01-19T23:32:01.663Z,3.30
2023-01-19T23:34:28.366Z,3.30
2023-01-19T23:36:55.120Z,3.30
2023-01-19T23:39:22.397Z,3.30
2023-01-19T23:41:49.239Z,3.30
2023-01-19T23:44:15.944Z,3.30
2023-01-19T23:46:42.675Z,3.30
2023-01-19T23:49:09.598Z,3.30
2023-01-19T23:51:36.432Z,3.30
2023-01-19T23:54:03.600Z,3.30
2023-01-19T23:56:32.291Z,3.40
2023-01-19T23:59:04.060Z,3.40
